Vestri — LM9282 — position and weather

sailwx.info

Track history (hours):
 
Tides and Currents Weather Stations Pressure Air Temp Water Temp Dewpoint Dewpoint Depression Visibility Wind Speed Wind Dir Waves Ship Positions

Vestri

Last reported at 2017-Oct-18 10:18 UTC. Time now 2017-Oct-22 21:19 UTC.
Position N 68°05' E 013°13'.

Length 14 m.

Type: Fishing. MMSI: 257459520.

Date/timePositionNaut miles runAvg speedWind from/ knotsBaromVisibWave heightAir tempDewpointWater temp
2017-Oct-18 10:18N 68°05' E 013°13'0 0.0
2017-Oct-16 11:39N 68°05' E 013°13'1 7.4
2017-Oct-16 11:28N 68°04' E 013°11'5 7.9
2017-Oct-16 10:49N 67°59' E 013°13'3 8.1
2017-Oct-16 10:30N 68°00' E 013°19'4 8.2
2017-Oct-16 10:00N 68°02' E 013°29'4 8.3
2017-Oct-16 09:29N 68°03' E 013°40'4 8.0
2017-Oct-16 08:58N 68°05' E 013°50'4 7.5
2017-Oct-16 08:29N 68°06' E 013°60'4 7.8
2017-Oct-16 07:54N 68°08' E 014°11'3 8.0
2017-Oct-16 07:30N 68°09' E 014°18'5 8.1
2017-Oct-16 06:56N 68°11' E 014°29'3 7.5
2017-Oct-16 06:29N 68°14' E 014°35'0 0.3
2017-Oct-16 05:54N 68°14' E 014°35'0 0.0
2017-Oct-16 05:30N 68°14' E 014°35'0 0.6
2017-Oct-16 04:51N 68°14' E 014°34'0 0.0
2017-Oct-16 04:27N 68°14' E 014°34'0 0.0
2017-Oct-16 03:48N 68°14' E 014°34'0 0.0
2017-Oct-16 03:24N 68°14' E 014°34'0 0.0
2017-Oct-16 03:00N 68°14' E 014°34'0 0.0
2017-Oct-16 02:30N 68°14' E 014°34'0 0.0
2017-Oct-16 02:00N 68°14' E 014°34'0 0.0
2017-Oct-16 00:36N 68°14' E 014°34'0 0.0
2017-Oct-16 00:30N 68°14' E 014°34'0 0.0
2017-Oct-16 00:00N 68°14' E 014°34'0 0.0
2017-Oct-15 23:30N 68°14' E 014°34'0 0.0
2017-Oct-15 21:51N 68°14' E 014°34'0 0.0
2017-Oct-15 21:12N 68°14' E 014°34'0 0.0
2017-Oct-15 20:00N 68°14' E 014°34'0 0.0
2017-Oct-15 19:24N 68°14' E 014°34'0 0.0
2017-Oct-15 18:56N 68°14' E 014°34'1 2.5
2017-Oct-15 18:28N 68°14' E 014°37'3 6.9
2017-Oct-15 17:59N 68°14' E 014°46'3 6.5
2017-Oct-15 17:29N 68°13' E 014°55'3 6.6
2017-Oct-15 16:58N 68°16' E 015°01'3 7.3
2017-Oct-15 16:30N 68°18' E 015°08'4 7.7
2017-Oct-15 16:00N 68°20' E 015°16'4 7.4
2017-Oct-15 15:30N 68°20' E 015°26'4 7.5
2017-Oct-15 15:00N 68°18' E 015°35'8 7.4
2017-Oct-15 13:59N 68°21' E 015°54'4 7.4
2017-Oct-15 13:30N 68°24' E 016°00'5 7.8
2017-Oct-15 12:54N 68°28' E 016°05'3 8.0
2017-Oct-15 12:30N 68°31' E 016°09'4 7.7
2017-Oct-15 12:00N 68°33' E 016°17'4 7.9
2017-Oct-15 11:30N 68°33' E 016°28'4 7.1
2017-Oct-15 11:00N 68°36' E 016°33'4 7.1
2017-Oct-15 10:30N 68°39' E 016°38'4 7.6
2017-Oct-15 09:59N 68°43' E 016°43'4 8.1
2017-Oct-15 09:30N 68°46' E 016°49'4 7.7
2017-Oct-15 09:00N 68°49' E 016°54'4 7.7
2017-Oct-15 08:29N 68°53' E 017°00'4 7.9
2017-Oct-15 08:00N 68°56' E 017°07'4 8.1
2017-Oct-15 07:30N 68°59' E 017°13'4 8.0
2017-Oct-15 07:00N 69°02' E 017°20'4 7.9
2017-Oct-15 06:30N 69°05' E 017°27'4 8.1
2017-Oct-15 05:59N 69°07' E 017°38'4 8.1
2017-Oct-15 05:30N 69°09' E 017°48'4 8.4
2017-Oct-15 05:00N 69°11' E 017°58'3 6.5
2017-Oct-15 04:30N 69°14' E 017°58'4 7.9
2017-Oct-15 04:00N 69°18' E 017°58'4 7.9
2017-Oct-15 03:29N 69°21' E 018°05'4 8.0
2017-Oct-15 03:00N 69°25' E 018°07'4 7.6
2017-Oct-15 02:30N 69°29' E 018°08'5 8.9
2017-Oct-15 01:58N 69°31' E 018°20'4 8.9
2017-Oct-15 01:30N 69°32' E 018°31'5 9.3
2017-Oct-15 01:00N 69°33' E 018°44'5 9.1
2017-Oct-15 00:30N 69°37' E 018°53'3 5.6
2017-Oct-15 00:00N 69°39' E 018°58'0 0.0
2017-Oct-14 23:30N 69°39' E 018°58'0 0.0
2017-Oct-14 23:00N 69°39' E 018°58'0 0.0
2017-Oct-14 22:30N 69°39' E 018°58'0 0.0
2017-Oct-14 22:00N 69°39' E 018°58'0 0.0
2017-Oct-14 21:30N 69°39' E 018°58'0 0.0
2017-Oct-14 21:00N 69°39' E 018°58'2 3.3
2017-Oct-14 20:29N 69°40' E 019°00'4 8.1
2017-Oct-14 20:00N 69°44' E 019°05'4 7.5
2017-Oct-14 19:30N 69°46' E 019°13'4 7.8
2017-Oct-14 19:00N 69°48' E 019°24'4 7.7
2017-Oct-14 18:30N 69°49' E 019°34'4 7.8
2017-Oct-14 17:59N 69°51' E 019°45'4 7.6
2017-Oct-14 17:30N 69°53' E 019°54'4 8.0
2017-Oct-14 17:00N 69°55' E 020°03'4 8.2
2017-Oct-14 16:30N 69°58' E 020°13'4 7.4
2017-Oct-14 16:00N 69°59' E 020°22'4 7.6
2017-Oct-14 15:29N 70°01' E 020°33'4 7.6
2017-Oct-14 15:00N 70°02' E 020°43'4 7.6
2017-Oct-14 14:30N 70°04' E 020°53'17 7.3
2017-Oct-14 12:11N 70°17' E 021°23'2 8.0
2017-Oct-14 11:59N 70°18' E 021°27'4 8.0
2017-Oct-14 11:30N 70°21' E 021°34'4 7.6
2017-Oct-14 11:00N 70°24' E 021°42'4 7.6
2017-Oct-14 10:30N 70°25' E 021°53'4 7.7
2017-Oct-14 09:59N 70°26' E 022°05'4 7.7
2017-Oct-14 09:29N 70°26' E 022°16'4 7.7
2017-Oct-14 08:57N 70°26' E 022°28'3 7.4
2017-Oct-14 08:30N 70°27' E 022°38'4 7.0
2017-Oct-14 07:53N 70°28' E 022°50'2 6.5
2017-Oct-14 07:30N 70°30' E 022°56'3 6.0
2017-Oct-14 07:00N 70°32' E 023°02'3 6.0
2017-Oct-14 06:29N 70°35' E 023°09'3 6.1
2017-Oct-14 06:00N 70°37' E 023°15'3 6.2
2017-Oct-14 05:29N 70°39' E 023°22'3 6.6
2017-Oct-14 05:00N 70°41' E 023°28'3 6.2
2017-Oct-14 04:30N 70°44' E 023°35'3 6.4
2017-Oct-14 04:00N 70°46' E 023°42'4 7.5
2017-Oct-14 03:29N 70°47' E 023°53'4 7.2
2017-Oct-14 03:00N 70°49' E 024°02'4 7.3
2017-Oct-14 02:30N 70°51' E 024°12'4 8.0
2017-Oct-14 02:00N 70°54' E 024°21'4 7.4
2017-Oct-14 01:30N 70°57' E 024°27'4 7.5
2017-Oct-14 01:00N 70°59' E 024°36'4 8.0
2017-Oct-14 00:29N 70°60' E 024°48'4 8.1
2017-Oct-14 00:00N 70°59' E 025°00'4 7.8
2017-Oct-13 23:28N 70°59' E 025°13'7 8.1
2017-Oct-13 22:34N 70°56' E 025°33'1 8.4
2017-Oct-13 22:30N 70°56' E 025°34'4 8.4
2017-Oct-13 22:00N 70°56' E 025°47'4 7.8
2017-Oct-13 21:30N 70°57' E 025°59'4 7.9
2017-Oct-13 21:00N 70°58' E 026°10'4 7.9
2017-Oct-13 20:30N 70°59' E 026°22'4 7.7
2017-Oct-13 20:00N 71°00' E 026°33'4 7.4
2017-Oct-13 19:29N 71°02' E 026°45'4 7.5
2017-Oct-13 18:59N 71°03' E 026°55'4 7.5
2017-Oct-13 18:30N 71°04' E 027°06'4 8.0
2017-Oct-13 18:00N 71°06' E 027°17'4 8.3
2017-Oct-13 17:29N 71°07' E 027°30'4 8.2
2017-Oct-13 17:00N 71°08' E 027°42'4 8.2
2017-Oct-13 16:30N 71°08' E 027°54'4 8.1
2017-Oct-13 16:00N 71°07' E 028°06'4 7.9
2017-Oct-13 15:30N 71°06' E 028°18'4 8.1
2017-Oct-13 15:00N 71°04' E 028°28'4 8.3
2017-Oct-13 14:30N 71°01' E 028°40'4 8.5
2017-Oct-13 14:00N 70°59' E 028°51'4 8.7
2017-Oct-13 13:30N 70°57' E 029°02'5 9.0
2017-Oct-13 13:00N 70°55' E 029°14'4 8.3
2017-Oct-13 12:29N 70°52' E 029°24'4 8.0
2017-Oct-13 12:01N 70°50' E 029°34'4 8.3
2017-Oct-13 11:30N 70°48' E 029°45'4 8.4
2017-Oct-13 11:00N 70°46' E 029°56'4 8.2
2017-Oct-13 10:30N 70°43' E 030°06'4 7.7
2017-Oct-13 09:56N 70°41' E 030°17'8 7.2
2017-Oct-13 08:51N 70°36' E 030°36'3 7.0
2017-Oct-13 08:29N 70°34' E 030°41'4 7.3
2017-Oct-13 08:00N 70°32' E 030°48'4 7.4
2017-Oct-13 07:30N 70°29' E 030°56'4 7.3
2017-Oct-13 07:00N 70°26' E 031°03'4 7.2
2017-Oct-13 06:30N 70°23' E 031°06'0 0.8
2017-Oct-13 05:58N 70°22' E 031°07'0 0.0
2017-Oct-13 05:28N 70°22' E 031°07'0 0.0
2017-Oct-13 04:58N 70°22' E 031°07'0 0.0
2017-Oct-13 04:28N 70°22' E 031°07'0 0.0
2017-Oct-13 03:58N 70°22' E 031°07'0 0.0
2017-Oct-13 03:28N 70°22' E 031°07'0 0.0
2017-Oct-13 02:58N 70°22' E 031°07'0 0.0
2017-Oct-13 02:28N 70°22' E 031°07'0 0.0
2017-Oct-13 01:58N 70°22' E 031°07'0 0.0
2017-Oct-13 01:28N 70°22' E 031°07'0 0.0
2017-Oct-13 00:58N 70°22' E 031°07'0 0.0
2017-Oct-13 00:28N 70°22' E 031°07'0 0.0
2017-Oct-12 23:58N 70°22' E 031°07'0 0.0
2017-Oct-12 23:28N 70°22' E 031°07'0 0.0
2017-Oct-12 22:58N 70°22' E 031°07'0 0.0
2017-Oct-12 22:28N 70°22' E 031°07'0 0.0
2017-Oct-12 21:58N 70°22' E 031°07'0 0.0
2017-Oct-12 21:25N 70°22' E 031°07'1 1.9
2017-Oct-12 20:59N 70°22' E 031°09'2 4.5
2017-Oct-12 20:29N 70°22' E 031°02'0 0.0
2017-Oct-12 19:59N 70°22' E 031°02'0 0.0
2017-Oct-12 19:29N 70°22' E 031°02'0 0.0
2017-Oct-12 18:59N 70°22' E 031°02'0 0.0
2017-Oct-12 18:29N 70°22' E 031°02'0 0.0
2017-Oct-12 17:59N 70°22' E 031°02'0 0.0
2017-Oct-12 17:29N 70°22' E 031°02'0 0.0
2017-Oct-12 16:59N 70°22' E 031°02'0 0.0
2017-Oct-12 16:24N 70°22' E 031°02'0 0.0
2017-Oct-12 15:59N 70°22' E 031°02'0 0.0
2017-Oct-12 15:29N 70°22' E 031°02'0 0.0
2017-Oct-12 14:59N 70°22' E 031°02'0 0.2
2017-Oct-12 14:28N 70°22' E 031°02'0 0.0
2017-Oct-12 13:58N 70°22' E 031°02'1 1.7
2017-Oct-12 13:30N 70°22' E 031°04'4 8.0
2017-Oct-12 13:00N 70°18' E 031°05'2 3.6
2017-Oct-12 12:30N 70°17' E 030°60'0 0.0
2017-Oct-12 12:00N 70°17' E 030°60'0 1.0
2017-Oct-12 11:30N 70°17' E 031°00'3 7.0
2017-Oct-12 11:00N 70°18' E 031°09'4 7.5
2017-Oct-12 10:30N 70°21' E 031°18'3 6.8
2017-Oct-12 10:00N 70°23' E 031°26'0 0.3
2017-Oct-12 09:29N 70°23' E 031°26'1 1.7
2017-Oct-12 08:58N 70°23' E 031°27'0 0.7
2017-Oct-12 08:29N 70°23' E 031°26'0 0.8
2017-Oct-12 07:59N 70°23' E 031°26'1 2.6
2017-Oct-12 07:29N 70°24' E 031°28'0 0.8
2017-Oct-12 06:59N 70°24' E 031°27'0 0.8
2017-Oct-12 06:30N 70°24' E 031°26'0 0.4
2017-Oct-12 05:59N 70°24' E 031°26'0 0.5
2017-Oct-12 05:30N 70°24' E 031°25'0 0.9
2017-Oct-12 04:59N 70°24' E 031°26'0 0.5
2017-Oct-12 04:28N 70°24' E 031°25'0 0.5
2017-Oct-12 04:00N 70°24' E 031°25'2 4.5
2017-Oct-12 03:31N 70°23' E 031°19'4 7.3
2017-Oct-12 03:00N 70°22' E 031°08'2 4.1
2017-Oct-12 02:29N 70°22' E 031°02'0 0.0
2017-Oct-12 01:59N 70°22' E 031°02'0 0.0
2017-Oct-12 01:29N 70°22' E 031°02'0 0.0
2017-Oct-12 00:59N 70°22' E 031°02'0 0.0
2017-Oct-12 00:29N 70°22' E 031°02'0 0.0
2017-Oct-11 23:59N 70°22' E 031°02'0 0.0
2017-Oct-11 23:29N 70°22' E 031°02'0 0.0
2017-Oct-11 22:59N 70°22' E 031°02'0 0.0
2017-Oct-11 22:29N 70°22' E 031°02'0 0.0
2017-Oct-11 21:59N 70°22' E 031°02'0 0.0
2017-Oct-11 21:29N 70°22' E 031°02'0 0.0
2017-Oct-11 20:59N 70°22' E 031°02'0 0.0
2017-Oct-11 20:29N 70°22' E 031°02'0 0.0
2017-Oct-11 19:59N 70°22' E 031°02'0 0.0
2017-Oct-11 19:29N 70°22' E 031°02'0 0.0
2017-Oct-11 18:59N 70°22' E 031°02'0 0.0
2017-Oct-11 18:29N 70°22' E 031°02'0 0.0
2017-Oct-11 17:59N 70°22' E 031°02'0 0.0
2017-Oct-11 17:29N 70°22' E 031°02'0 0.0
2017-Oct-11 16:56N 70°22' E 031°02'0 0.0
2017-Oct-10 23:59N 70°22' E 031°02'0 0.0
2017-Oct-10 23:29N 70°22' E 031°02'0 0.0
2017-Oct-10 22:59N 70°22' E 031°02'0 0.0
2017-Oct-10 22:29N 70°22' E 031°02'0 0.0
2017-Oct-10 21:59N 70°22' E 031°02'0 0.0
2017-Oct-10 21:29N 70°22' E 031°02'0 0.0
2017-Oct-10 20:59N 70°22' E 031°02'0 0.0
2017-Oct-10 20:29N 70°22' E 031°02'0 0.0
2017-Oct-10 19:59N 70°22' E 031°02'0 0.0
2017-Oct-10 19:29N 70°22' E 031°02'0 0.0
2017-Oct-10 18:59N 70°22' E 031°02'0 0.0
2017-Oct-10 18:29N 70°22' E 031°02'0 0.2
2017-Oct-10 18:00N 70°22' E 031°02'3 5.2
2017-Oct-10 17:30N 70°20' E 031°06'3 6.1
2017-Oct-10 17:00N 70°17' E 031°02'1 1.7
2017-Oct-10 16:28N 70°17' E 030°60'0 0.0
2017-Oct-10 15:58N 70°17' E 030°60'0 0.0
2017-Oct-10 15:28N 70°17' E 030°60'0 0.1
2017-Oct-10 14:58N 70°17' E 030°60'1 1.4
2017-Oct-10 14:00N 70°17' E 031°04'4 7.1
2017-Oct-10 13:30N 70°19' E 031°12'3 6.8
2017-Oct-10 12:59N 70°21' E 031°20'3 6.2
2017-Oct-10 12:29N 70°23' E 031°27'1 1.2
2017-Oct-10 12:00N 70°24' E 031°27'0 0.9
2017-Oct-10 11:30N 70°23' E 031°26'0 0.9
2017-Oct-10 11:00N 70°23' E 031°27'0 0.3
2017-Oct-10 10:29N 70°23' E 031°27'0 0.5
2017-Oct-10 09:59N 70°23' E 031°26'1 1.1
2017-Oct-10 09:30N 70°23' E 031°27'2 3.3
2017-Oct-10 09:00N 70°24' E 031°25'1 1.8
2017-Oct-10 08:30N 70°24' E 031°27'0 0.4
2017-Oct-10 07:58N 70°24' E 031°26'0 0.4
2017-Oct-10 07:28N 70°24' E 031°26'0 0.6
2017-Oct-10 07:00N 70°24' E 031°25'0 0.5
2017-Oct-10 06:30N 70°24' E 031°24'1 1.8
2017-Oct-10 05:59N 70°24' E 031°27'0 1.0
2017-Oct-10 05:30N 70°24' E 031°26'0 0.5
2017-Oct-10 04:58N 70°24' E 031°25'0 0.4
2017-Oct-10 04:28N 70°24' E 031°25'1 1.5
2017-Oct-10 04:00N 70°24' E 031°27'3 5.4
2017-Oct-10 03:30N 70°23' E 031°19'4 7.6
2017-Oct-10 02:59N 70°22' E 031°08'2 4.1
2017-Oct-10 02:28N 70°22' E 031°02'0 0.0
2017-Oct-10 01:58N 70°22' E 031°02'0 0.0
2017-Oct-10 01:25N 70°22' E 031°02'0 0.0
2017-Oct-10 00:58N 70°22' E 031°02'0 0.0
2017-Oct-10 00:28N 70°22' E 031°02'0 0.0
2017-Oct-09 23:58N 70°22' E 031°02'0 0.0
2017-Oct-09 23:28N 70°22' E 031°02'0 0.0
2017-Oct-09 22:58N 70°22' E 031°02'0 0.0
2017-Oct-09 22:28N 70°22' E 031°02'0 0.0
2017-Oct-09 21:58N 70°22' E 031°02'0 0.0
2017-Oct-09 21:28N 70°22' E 031°02'0 0.0
2017-Oct-09 20:58N 70°22' E 031°02'0 0.0
2017-Oct-09 20:28N 70°22' E 031°02'0 0.0
2017-Oct-09 19:58N 70°22' E 031°02'0 0.0
2017-Oct-09 19:28N 70°22' E 031°02'0 0.0
2017-Oct-09 18:58N 70°22' E 031°02'0 0.0
2017-Oct-09 18:28N 70°22' E 031°02'1 2.1
2017-Oct-09 18:00N 70°21' E 031°04'3 6.6
2017-Oct-09 17:30N 70°18' E 031°05'2 3.9
2017-Oct-09 16:59N 70°17' E 030°60'0 0.0
2017-Oct-09 16:29N 70°17' E 030°60'0 0.0
2017-Oct-09 15:59N 70°17' E 030°60'0 0.0
2017-Oct-09 15:28N 70°17' E 030°60'3 6.5
2017-Oct-09 15:00N 70°18' E 031°09'4 8.4
2017-Oct-09 14:30N 70°21' E 031°19'4 7.2
2017-Oct-09 14:00N 70°23' E 031°27'0 0.3
2017-Oct-09 13:29N 70°23' E 031°27'1 1.4
2017-Oct-09 12:59N 70°23' E 031°25'2 3.1
2017-Oct-09 12:29N 70°25' E 031°27'0 0.6
2017-Oct-09 12:00N 70°25' E 031°26'0 0.4
2017-Oct-09 11:30N 70°24' E 031°26'0 0.4
2017-Oct-09 10:59N 70°24' E 031°26'0 0.2
2017-Oct-09 10:29N 70°24' E 031°25'0 0.2
2017-Oct-09 09:59N 70°24' E 031°25'0 0.3
2017-Oct-09 09:30N 70°24' E 031°25'1 1.5
2017-Oct-09 09:00N 70°24' E 031°27'0 0.2
2017-Oct-09 08:30N 70°24' E 031°27'0 0.4
2017-Oct-09 07:59N 70°24' E 031°26'0 0.3
2017-Oct-09 07:29N 70°24' E 031°26'0 0.4
2017-Oct-09 07:00N 70°24' E 031°25'0 0.5
2017-Oct-09 06:30N 70°24' E 031°24'2 3.3
2017-Oct-09 06:00N 70°23' E 031°28'0 0.6
2017-Oct-09 05:29N 70°23' E 031°27'0 0.7
2017-Oct-09 05:00N 70°23' E 031°27'0 0.5
2017-Oct-09 04:30N 70°23' E 031°26'0 0.5
2017-Oct-09 04:00N 70°23' E 031°26'3 5.3
2017-Oct-09 03:29N 70°23' E 031°18'4 7.6
2017-Oct-09 02:59N 70°22' E 031°07'2 3.3
2017-Oct-09 02:29N 70°22' E 031°02'0 0.0
2017-Oct-09 01:59N 70°22' E 031°02'0 0.0
2017-Oct-09 01:29N 70°22' E 031°02'0 0.0
2017-Oct-09 00:59N 70°22' E 031°02'0 0.0
2017-Oct-09 00:29N 70°22' E 031°02'0 0.0
2017-Oct-08 23:59N 70°22' E 031°02'0 0.0
2017-Oct-08 23:29N 70°22' E 031°02'0 0.0
2017-Oct-08 22:59N 70°22' E 031°02'0 0.0
2017-Oct-08 22:29N 70°22' E 031°02'0 0.0
2017-Oct-08 21:59N 70°22' E 031°02'0 0.0
2017-Oct-08 21:29N 70°22' E 031°02'0 0.0
2017-Oct-08 20:59N 70°22' E 031°02'0 0.0
2017-Oct-08 20:29N 70°22' E 031°02'0 0.0
2017-Oct-08 19:59N 70°22' E 031°02'0 0.0
2017-Oct-08 19:29N 70°22' E 031°02'0 0.0
2017-Oct-08 18:59N 70°22' E 031°02'0 0.0
2017-Oct-08 18:29N 70°22' E 031°02'0 0.0
2017-Oct-08 17:59N 70°22' E 031°02'0 0.0
2017-Oct-08 17:29N 70°22' E 031°02'0 0.0
2017-Oct-08 16:59N 70°22' E 031°02'0 0.0
2017-Oct-08 16:29N 70°22' E 031°02'0 0.0
2017-Oct-08 15:59N 70°22' E 031°02'0 0.0
2017-Oct-08 15:29N 70°22' E 031°02'0 0.0
2017-Oct-08 14:59N 70°22' E 031°02'0 0.0
2017-Oct-08 14:29N 70°22' E 031°02'0 0.0
2017-Oct-08 13:59N 70°22' E 031°02'0 0.0
2017-Oct-08 13:29N 70°22' E 031°02'0 0.0
2017-Oct-08 12:59N 70°22' E 031°02'0 0.0
2017-Oct-08 12:29N 70°22' E 031°02'0 0.0
2017-Oct-08 11:59N 70°22' E 031°02'2 4.0
2017-Oct-08 11:30N 70°22' E 031°08'4 7.3
2017-Oct-08 11:00N 70°22' E 031°18'3 5.4
2017-Oct-08 10:30N 70°23' E 031°26'  
Track history (hours):
 
Tides and Currents Weather Stations Pressure Air Temp Water Temp Dewpoint Dewpoint Depression Visibility Wind Speed Wind Dir Waves Ship Positions

Vestri

Last reported at 2017-Oct-18 10:18 UTC. Time now 2017-Oct-22 21:19 UTC.
Position N 68°05' E 013°13'.

Length 14 m.

Type: Fishing. MMSI: 257459520.

Date/timePositionNaut miles runAvg speedWind from/ knotsBaromVisibWave heightAir tempDewpointWater temp
2017-Oct-18 10:18N 68°05' E 013°13'0 0.0
2017-Oct-16 11:39N 68°05' E 013°13'1 7.4
2017-Oct-16 11:28N 68°04' E 013°11'5 7.9
2017-Oct-16 10:49N 67°59' E 013°13'3 8.1
2017-Oct-16 10:30N 68°00' E 013°19'4 8.2
2017-Oct-16 10:00N 68°02' E 013°29'4 8.3
2017-Oct-16 09:29N 68°03' E 013°40'4 8.0
2017-Oct-16 08:58N 68°05' E 013°50'4 7.5
2017-Oct-16 08:29N 68°06' E 013°60'4 7.8
2017-Oct-16 07:54N 68°08' E 014°11'3 8.0
2017-Oct-16 07:30N 68°09' E 014°18'5 8.1
2017-Oct-16 06:56N 68°11' E 014°29'3 7.5
2017-Oct-16 06:29N 68°14' E 014°35'0 0.3
2017-Oct-16 05:54N 68°14' E 014°35'0 0.0
2017-Oct-16 05:30N 68°14' E 014°35'0 0.6
2017-Oct-16 04:51N 68°14' E 014°34'0 0.0
2017-Oct-16 04:27N 68°14' E 014°34'0 0.0
2017-Oct-16 03:48N 68°14' E 014°34'0 0.0
2017-Oct-16 03:24N 68°14' E 014°34'0 0.0
2017-Oct-16 03:00N 68°14' E 014°34'0 0.0
2017-Oct-16 02:30N 68°14' E 014°34'0 0.0
2017-Oct-16 02:00N 68°14' E 014°34'0 0.0
2017-Oct-16 00:36N 68°14' E 014°34'0 0.0
2017-Oct-16 00:30N 68°14' E 014°34'0 0.0
2017-Oct-16 00:00N 68°14' E 014°34'0 0.0
2017-Oct-15 23:30N 68°14' E 014°34'0 0.0
2017-Oct-15 21:51N 68°14' E 014°34'0 0.0
2017-Oct-15 21:12N 68°14' E 014°34'0 0.0
2017-Oct-15 20:00N 68°14' E 014°34'0 0.0
2017-Oct-15 19:24N 68°14' E 014°34'0 0.0
2017-Oct-15 18:56N 68°14' E 014°34'1 2.5
2017-Oct-15 18:28N 68°14' E 014°37'3 6.9
2017-Oct-15 17:59N 68°14' E 014°46'3 6.5
2017-Oct-15 17:29N 68°13' E 014°55'3 6.6
2017-Oct-15 16:58N 68°16' E 015°01'3 7.3
2017-Oct-15 16:30N 68°18' E 015°08'4 7.7
2017-Oct-15 16:00N 68°20' E 015°16'4 7.4
2017-Oct-15 15:30N 68°20' E 015°26'4 7.5
2017-Oct-15 15:00N 68°18' E 015°35'8 7.4
2017-Oct-15 13:59N 68°21' E 015°54'4 7.4
2017-Oct-15 13:30N 68°24' E 016°00'5 7.8
2017-Oct-15 12:54N 68°28' E 016°05'3 8.0
2017-Oct-15 12:30N 68°31' E 016°09'4 7.7
2017-Oct-15 12:00N 68°33' E 016°17'4 7.9
2017-Oct-15 11:30N 68°33' E 016°28'4 7.1
2017-Oct-15 11:00N 68°36' E 016°33'4 7.1
2017-Oct-15 10:30N 68°39' E 016°38'4 7.6
2017-Oct-15 09:59N 68°43' E 016°43'4 8.1
2017-Oct-15 09:30N 68°46' E 016°49'4 7.7
2017-Oct-15 09:00N 68°49' E 016°54'4 7.7
2017-Oct-15 08:29N 68°53' E 017°00'4 7.9
2017-Oct-15 08:00N 68°56' E 017°07'4 8.1
2017-Oct-15 07:30N 68°59' E 017°13'4 8.0
2017-Oct-15 07:00N 69°02' E 017°20'4 7.9
2017-Oct-15 06:30N 69°05' E 017°27'4 8.1
2017-Oct-15 05:59N 69°07' E 017°38'4 8.1
2017-Oct-15 05:30N 69°09' E 017°48'4 8.4
2017-Oct-15 05:00N 69°11' E 017°58'3 6.5
2017-Oct-15 04:30N 69°14' E 017°58'4 7.9
2017-Oct-15 04:00N 69°18' E 017°58'4 7.9
2017-Oct-15 03:29N 69°21' E 018°05'4 8.0
2017-Oct-15 03:00N 69°25' E 018°07'4 7.6
2017-Oct-15 02:30N 69°29' E 018°08'5 8.9
2017-Oct-15 01:58N 69°31' E 018°20'4 8.9
2017-Oct-15 01:30N 69°32' E 018°31'5 9.3
2017-Oct-15 01:00N 69°33' E 018°44'5 9.1
2017-Oct-15 00:30N 69°37' E 018°53'3 5.6
2017-Oct-15 00:00N 69°39' E 018°58'0 0.0
2017-Oct-14 23:30N 69°39' E 018°58'0 0.0
2017-Oct-14 23:00N 69°39' E 018°58'0 0.0
2017-Oct-14 22:30N 69°39' E 018°58'0 0.0
2017-Oct-14 22:00N 69°39' E 018°58'0 0.0
2017-Oct-14 21:30N 69°39' E 018°58'0 0.0
2017-Oct-14 21:00N 69°39' E 018°58'2 3.3
2017-Oct-14 20:29N 69°40' E 019°00'4 8.1
2017-Oct-14 20:00N 69°44' E 019°05'4 7.5
2017-Oct-14 19:30N 69°46' E 019°13'4 7.8
2017-Oct-14 19:00N 69°48' E 019°24'4 7.7
2017-Oct-14 18:30N 69°49' E 019°34'4 7.8
2017-Oct-14 17:59N 69°51' E 019°45'4 7.6
2017-Oct-14 17:30N 69°53' E 019°54'4 8.0
2017-Oct-14 17:00N 69°55' E 020°03'4 8.2
2017-Oct-14 16:30N 69°58' E 020°13'4 7.4
2017-Oct-14 16:00N 69°59' E 020°22'4 7.6
2017-Oct-14 15:29N 70°01' E 020°33'4 7.6
2017-Oct-14 15:00N 70°02' E 020°43'4 7.6
2017-Oct-14 14:30N 70°04' E 020°53'17 7.3
2017-Oct-14 12:11N 70°17' E 021°23'2 8.0
2017-Oct-14 11:59N 70°18' E 021°27'4 8.0
2017-Oct-14 11:30N 70°21' E 021°34'4 7.6
2017-Oct-14 11:00N 70°24' E 021°42'4 7.6
2017-Oct-14 10:30N 70°25' E 021°53'4 7.7
2017-Oct-14 09:59N 70°26' E 022°05'4 7.7
2017-Oct-14 09:29N 70°26' E 022°16'4 7.7
2017-Oct-14 08:57N 70°26' E 022°28'3 7.4
2017-Oct-14 08:30N 70°27' E 022°38'4 7.0
2017-Oct-14 07:53N 70°28' E 022°50'2 6.5
2017-Oct-14 07:30N 70°30' E 022°56'3 6.0
2017-Oct-14 07:00N 70°32' E 023°02'3 6.0
2017-Oct-14 06:29N 70°35' E 023°09'3 6.1
2017-Oct-14 06:00N 70°37' E 023°15'3 6.2
2017-Oct-14 05:29N 70°39' E 023°22'3 6.6
2017-Oct-14 05:00N 70°41' E 023°28'3 6.2
2017-Oct-14 04:30N 70°44' E 023°35'3 6.4
2017-Oct-14 04:00N 70°46' E 023°42'4 7.5
2017-Oct-14 03:29N 70°47' E 023°53'4 7.2
2017-Oct-14 03:00N 70°49' E 024°02'4 7.3
2017-Oct-14 02:30N 70°51' E 024°12'4 8.0
2017-Oct-14 02:00N 70°54' E 024°21'4 7.4
2017-Oct-14 01:30N 70°57' E 024°27'4 7.5
2017-Oct-14 01:00N 70°59' E 024°36'4 8.0
2017-Oct-14 00:29N 70°60' E 024°48'4 8.1
2017-Oct-14 00:00N 70°59' E 025°00'4 7.8
2017-Oct-13 23:28N 70°59' E 025°13'7 8.1
2017-Oct-13 22:34N 70°56' E 025°33'1 8.4
2017-Oct-13 22:30N 70°56' E 025°34'4 8.4
2017-Oct-13 22:00N 70°56' E 025°47'4 7.8
2017-Oct-13 21:30N 70°57' E 025°59'4 7.9
2017-Oct-13 21:00N 70°58' E 026°10'4 7.9
2017-Oct-13 20:30N 70°59' E 026°22'4 7.7
2017-Oct-13 20:00N 71°00' E 026°33'4 7.4
2017-Oct-13 19:29N 71°02' E 026°45'4 7.5
2017-Oct-13 18:59N 71°03' E 026°55'4 7.5
2017-Oct-13 18:30N 71°04' E 027°06'4 8.0
2017-Oct-13 18:00N 71°06' E 027°17'4 8.3
2017-Oct-13 17:29N 71°07' E 027°30'4 8.2
2017-Oct-13 17:00N 71°08' E 027°42'4 8.2
2017-Oct-13 16:30N 71°08' E 027°54'4 8.1
2017-Oct-13 16:00N 71°07' E 028°06'4 7.9
2017-Oct-13 15:30N 71°06' E 028°18'4 8.1
2017-Oct-13 15:00N 71°04' E 028°28'4 8.3
2017-Oct-13 14:30N 71°01' E 028°40'4 8.5
2017-Oct-13 14:00N 70°59' E 028°51'4 8.7
2017-Oct-13 13:30N 70°57' E 029°02'5 9.0
2017-Oct-13 13:00N 70°55' E 029°14'4 8.3
2017-Oct-13 12:29N 70°52' E 029°24'4 8.0
2017-Oct-13 12:01N 70°50' E 029°34'4 8.3
2017-Oct-13 11:30N 70°48' E 029°45'4 8.4
2017-Oct-13 11:00N 70°46' E 029°56'4 8.2
2017-Oct-13 10:30N 70°43' E 030°06'4 7.7
2017-Oct-13 09:56N 70°41' E 030°17'8 7.2
2017-Oct-13 08:51N 70°36' E 030°36'3 7.0
2017-Oct-13 08:29N 70°34' E 030°41'4 7.3
2017-Oct-13 08:00N 70°32' E 030°48'4 7.4
2017-Oct-13 07:30N 70°29' E 030°56'4 7.3
2017-Oct-13 07:00N 70°26' E 031°03'4 7.2
2017-Oct-13 06:30N 70°23' E 031°06'0 0.8
2017-Oct-13 05:58N 70°22' E 031°07'0 0.0
2017-Oct-13 05:28N 70°22' E 031°07'0 0.0
2017-Oct-13 04:58N 70°22' E 031°07'0 0.0
2017-Oct-13 04:28N 70°22' E 031°07'0 0.0
2017-Oct-13 03:58N 70°22' E 031°07'0 0.0
2017-Oct-13 03:28N 70°22' E 031°07'0 0.0
2017-Oct-13 02:58N 70°22' E 031°07'0 0.0
2017-Oct-13 02:28N 70°22' E 031°07'0 0.0
2017-Oct-13 01:58N 70°22' E 031°07'0 0.0
2017-Oct-13 01:28N 70°22' E 031°07'0 0.0
2017-Oct-13 00:58N 70°22' E 031°07'0 0.0
2017-Oct-13 00:28N 70°22' E 031°07'0 0.0
2017-Oct-12 23:58N 70°22' E 031°07'0 0.0
2017-Oct-12 23:28N 70°22' E 031°07'0 0.0
2017-Oct-12 22:58N 70°22' E 031°07'0 0.0
2017-Oct-12 22:28N 70°22' E 031°07'0 0.0
2017-Oct-12 21:58N 70°22' E 031°07'0 0.0
2017-Oct-12 21:25N 70°22' E 031°07'1 1.9
2017-Oct-12 20:59N 70°22' E 031°09'2 4.5
2017-Oct-12 20:29N 70°22' E 031°02'0 0.0
2017-Oct-12 19:59N 70°22' E 031°02'0 0.0
2017-Oct-12 19:29N 70°22' E 031°02'0 0.0
2017-Oct-12 18:59N 70°22' E 031°02'0 0.0
2017-Oct-12 18:29N 70°22' E 031°02'0 0.0
2017-Oct-12 17:59N 70°22' E 031°02'0 0.0
2017-Oct-12 17:29N 70°22' E 031°02'0 0.0
2017-Oct-12 16:59N 70°22' E 031°02'0 0.0
2017-Oct-12 16:24N 70°22' E 031°02'0 0.0
2017-Oct-12 15:59N 70°22' E 031°02'0 0.0
2017-Oct-12 15:29N 70°22' E 031°02'0 0.0
2017-Oct-12 14:59N 70°22' E 031°02'0 0.2
2017-Oct-12 14:28N 70°22' E 031°02'0 0.0
2017-Oct-12 13:58N 70°22' E 031°02'1 1.7
2017-Oct-12 13:30N 70°22' E 031°04'4 8.0
2017-Oct-12 13:00N 70°18' E 031°05'2 3.6
2017-Oct-12 12:30N 70°17' E 030°60'0 0.0
2017-Oct-12 12:00N 70°17' E 030°60'0 1.0
2017-Oct-12 11:30N 70°17' E 031°00'3 7.0
2017-Oct-12 11:00N 70°18' E 031°09'4 7.5
2017-Oct-12 10:30N 70°21' E 031°18'3 6.8
2017-Oct-12 10:00N 70°23' E 031°26'0 0.3
2017-Oct-12 09:29N 70°23' E 031°26'1 1.7
2017-Oct-12 08:58N 70°23' E 031°27'0 0.7
2017-Oct-12 08:29N 70°23' E 031°26'0 0.8
2017-Oct-12 07:59N 70°23' E 031°26'1 2.6
2017-Oct-12 07:29N 70°24' E 031°28'0 0.8
2017-Oct-12 06:59N 70°24' E 031°27'0 0.8
2017-Oct-12 06:30N 70°24' E 031°26'0 0.4
2017-Oct-12 05:59N 70°24' E 031°26'0 0.5
2017-Oct-12 05:30N 70°24' E 031°25'0 0.9
2017-Oct-12 04:59N 70°24' E 031°26'0 0.5
2017-Oct-12 04:28N 70°24' E 031°25'0 0.5
2017-Oct-12 04:00N 70°24' E 031°25'2 4.5
2017-Oct-12 03:31N 70°23' E 031°19'4 7.3
2017-Oct-12 03:00N 70°22' E 031°08'2 4.1
2017-Oct-12 02:29N 70°22' E 031°02'0 0.0
2017-Oct-12 01:59N 70°22' E 031°02'0 0.0
2017-Oct-12 01:29N 70°22' E 031°02'0 0.0
2017-Oct-12 00:59N 70°22' E 031°02'0 0.0
2017-Oct-12 00:29N 70°22' E 031°02'0 0.0
2017-Oct-11 23:59N 70°22' E 031°02'0 0.0
2017-Oct-11 23:29N 70°22' E 031°02'0 0.0
2017-Oct-11 22:59N 70°22' E 031°02'0 0.0
2017-Oct-11 22:29N 70°22' E 031°02'0 0.0
2017-Oct-11 21:59N 70°22' E 031°02'0 0.0
2017-Oct-11 21:29N 70°22' E 031°02'0 0.0
2017-Oct-11 20:59N 70°22' E 031°02'0 0.0
2017-Oct-11 20:29N 70°22' E 031°02'0 0.0
2017-Oct-11 19:59N 70°22' E 031°02'0 0.0
2017-Oct-11 19:29N 70°22' E 031°02'0 0.0
2017-Oct-11 18:59N 70°22' E 031°02'0 0.0
2017-Oct-11 18:29N 70°22' E 031°02'0 0.0
2017-Oct-11 17:59N 70°22' E 031°02'0 0.0
2017-Oct-11 17:29N 70°22' E 031°02'0 0.0
2017-Oct-11 16:56N 70°22' E 031°02'0 0.0
2017-Oct-10 23:59N 70°22' E 031°02'0 0.0
2017-Oct-10 23:29N 70°22' E 031°02'0 0.0
2017-Oct-10 22:59N 70°22' E 031°02'0 0.0
2017-Oct-10 22:29N 70°22' E 031°02'0 0.0
2017-Oct-10 21:59N 70°22' E 031°02'0 0.0
2017-Oct-10 21:29N 70°22' E 031°02'0 0.0
2017-Oct-10 20:59N 70°22' E 031°02'0 0.0
2017-Oct-10 20:29N 70°22' E 031°02'0 0.0
2017-Oct-10 19:59N 70°22' E 031°02'0 0.0
2017-Oct-10 19:29N 70°22' E 031°02'0 0.0
2017-Oct-10 18:59N 70°22' E 031°02'0 0.0
2017-Oct-10 18:29N 70°22' E 031°02'0 0.2
2017-Oct-10 18:00N 70°22' E 031°02'3 5.2
2017-Oct-10 17:30N 70°20' E 031°06'3 6.1
2017-Oct-10 17:00N 70°17' E 031°02'1 1.7
2017-Oct-10 16:28N 70°17' E 030°60'0 0.0
2017-Oct-10 15:58N 70°17' E 030°60'0 0.0
2017-Oct-10 15:28N 70°17' E 030°60'0 0.1
2017-Oct-10 14:58N 70°17' E 030°60'1 1.4
2017-Oct-10 14:00N 70°17' E 031°04'4 7.1
2017-Oct-10 13:30N 70°19' E 031°12'3 6.8
2017-Oct-10 12:59N 70°21' E 031°20'3 6.2
2017-Oct-10 12:29N 70°23' E 031°27'1 1.2
2017-Oct-10 12:00N 70°24' E 031°27'0 0.9
2017-Oct-10 11:30N 70°23' E 031°26'0 0.9
2017-Oct-10 11:00N 70°23' E 031°27'0 0.3
2017-Oct-10 10:29N 70°23' E 031°27'0 0.5
2017-Oct-10 09:59N 70°23' E 031°26'1 1.1
2017-Oct-10 09:30N 70°23' E 031°27'2 3.3
2017-Oct-10 09:00N 70°24' E 031°25'1 1.8
2017-Oct-10 08:30N 70°24' E 031°27'0 0.4
2017-Oct-10 07:58N 70°24' E 031°26'0 0.4
2017-Oct-10 07:28N 70°24' E 031°26'0 0.6
2017-Oct-10 07:00N 70°24' E 031°25'0 0.5
2017-Oct-10 06:30N 70°24' E 031°24'1 1.8
2017-Oct-10 05:59N 70°24' E 031°27'0 1.0
2017-Oct-10 05:30N 70°24' E 031°26'0 0.5
2017-Oct-10 04:58N 70°24' E 031°25'0 0.4
2017-Oct-10 04:28N 70°24' E 031°25'1 1.5
2017-Oct-10 04:00N 70°24' E 031°27'3 5.4
2017-Oct-10 03:30N 70°23' E 031°19'4 7.6
2017-Oct-10 02:59N 70°22' E 031°08'2 4.1
2017-Oct-10 02:28N 70°22' E 031°02'0 0.0
2017-Oct-10 01:58N 70°22' E 031°02'0 0.0
2017-Oct-10 01:25N 70°22' E 031°02'0 0.0
2017-Oct-10 00:58N 70°22' E 031°02'0 0.0
2017-Oct-10 00:28N 70°22' E 031°02'0 0.0
2017-Oct-09 23:58N 70°22' E 031°02'0 0.0
2017-Oct-09 23:28N 70°22' E 031°02'0 0.0
2017-Oct-09 22:58N 70°22' E 031°02'0 0.0
2017-Oct-09 22:28N 70°22' E 031°02'0 0.0
2017-Oct-09 21:58N 70°22' E 031°02'0 0.0
2017-Oct-09 21:28N 70°22' E 031°02'0 0.0
2017-Oct-09 20:58N 70°22' E 031°02'0 0.0
2017-Oct-09 20:28N 70°22' E 031°02'0 0.0
2017-Oct-09 19:58N 70°22' E 031°02'0 0.0
2017-Oct-09 19:28N 70°22' E 031°02'0 0.0
2017-Oct-09 18:58N 70°22' E 031°02'0 0.0
2017-Oct-09 18:28N 70°22' E 031°02'1 2.1
2017-Oct-09 18:00N 70°21' E 031°04'3 6.6
2017-Oct-09 17:30N 70°18' E 031°05'2 3.9
2017-Oct-09 16:59N 70°17' E 030°60'0 0.0
2017-Oct-09 16:29N 70°17' E 030°60'0 0.0
2017-Oct-09 15:59N 70°17' E 030°60'0 0.0
2017-Oct-09 15:28N 70°17' E 030°60'3 6.5
2017-Oct-09 15:00N 70°18' E 031°09'4 8.4
2017-Oct-09 14:30N 70°21' E 031°19'4 7.2
2017-Oct-09 14:00N 70°23' E 031°27'0 0.3
2017-Oct-09 13:29N 70°23' E 031°27'1 1.4
2017-Oct-09 12:59N 70°23' E 031°25'2 3.1
2017-Oct-09 12:29N 70°25' E 031°27'0 0.6
2017-Oct-09 12:00N 70°25' E 031°26'0 0.4
2017-Oct-09 11:30N 70°24' E 031°26'0 0.4
2017-Oct-09 10:59N 70°24' E 031°26'0 0.2
2017-Oct-09 10:29N 70°24' E 031°25'0 0.2
2017-Oct-09 09:59N 70°24' E 031°25'0 0.3
2017-Oct-09 09:30N 70°24' E 031°25'1 1.5
2017-Oct-09 09:00N 70°24' E 031°27'0 0.2
2017-Oct-09 08:30N 70°24' E 031°27'0 0.4
2017-Oct-09 07:59N 70°24' E 031°26'0 0.3
2017-Oct-09 07:29N 70°24' E 031°26'0 0.4
2017-Oct-09 07:00N 70°24' E 031°25'0 0.5
2017-Oct-09 06:30N 70°24' E 031°24'2 3.3
2017-Oct-09 06:00N 70°23' E 031°28'0 0.6
2017-Oct-09 05:29N 70°23' E 031°27'0 0.7
2017-Oct-09 05:00N 70°23' E 031°27'0 0.5
2017-Oct-09 04:30N 70°23' E 031°26'0 0.5
2017-Oct-09 04:00N 70°23' E 031°26'3 5.3
2017-Oct-09 03:29N 70°23' E 031°18'4 7.6
2017-Oct-09 02:59N 70°22' E 031°07'2 3.3
2017-Oct-09 02:29N 70°22' E 031°02'0 0.0
2017-Oct-09 01:59N 70°22' E 031°02'0 0.0
2017-Oct-09 01:29N 70°22' E 031°02'0 0.0
2017-Oct-09 00:59N 70°22' E 031°02'0 0.0
2017-Oct-09 00:29N 70°22' E 031°02'0 0.0
2017-Oct-08 23:59N 70°22' E 031°02'0 0.0
2017-Oct-08 23:29N 70°22' E 031°02'0 0.0
2017-Oct-08 22:59N 70°22' E 031°02'0 0.0
2017-Oct-08 22:29N 70°22' E 031°02'0 0.0
2017-Oct-08 21:59N 70°22' E 031°02'0 0.0
2017-Oct-08 21:29N 70°22' E 031°02'0 0.0
2017-Oct-08 20:59N 70°22' E 031°02'0 0.0
2017-Oct-08 20:29N 70°22' E 031°02'0 0.0
2017-Oct-08 19:59N 70°22' E 031°02'0 0.0
2017-Oct-08 19:29N 70°22' E 031°02'0 0.0
2017-Oct-08 18:59N 70°22' E 031°02'0 0.0
2017-Oct-08 18:29N 70°22' E 031°02'0 0.0
2017-Oct-08 17:59N 70°22' E 031°02'0 0.0
2017-Oct-08 17:29N 70°22' E 031°02'0 0.0
2017-Oct-08 16:59N 70°22' E 031°02'0 0.0
2017-Oct-08 16:29N 70°22' E 031°02'0 0.0
2017-Oct-08 15:59N 70°22' E 031°02'0 0.0
2017-Oct-08 15:29N 70°22' E 031°02'0 0.0
2017-Oct-08 14:59N 70°22' E 031°02'0 0.0
2017-Oct-08 14:29N 70°22' E 031°02'0 0.0
2017-Oct-08 13:59N 70°22' E 031°02'0 0.0
2017-Oct-08 13:29N 70°22' E 031°02'0 0.0
2017-Oct-08 12:59N 70°22' E 031°02'0 0.0
2017-Oct-08 12:29N 70°22' E 031°02'0 0.0
2017-Oct-08 11:59N 70°22' E 031°02'2 4.0
2017-Oct-08 11:30N 70°22' E 031°08'4 7.3
2017-Oct-08 11:00N 70°22' E 031°18'3 5.4
2017-Oct-08 10:30N 70°23' E 031°26'  

Dump ship's entire track history